createdAt,value
2019-03-20T00:00:36.754Z,-0.70
2019-03-20T00:03:05.587Z,-0.70
2019-03-20T00:05:34.115Z,-0.80
2019-03-20T00:08:02.662Z,-0.80
2019-03-20T00:10:31.252Z,-0.90
2019-03-20T00:12:59.715Z,-0.90
2019-03-20T00:15:28.332Z,-0.90
2019-03-20T00:17:56.931Z,-0.90
2019-03-20T00:20:25.600Z,-1.00
2019-03-20T00:22:54.076Z,-1.00
2019-03-20T00:25:22.692Z,-1.10
2019-03-20T00:27:51.211Z,-1.10
2019-03-20T00:30:20.444Z,-1.20
2019-03-20T00:32:49.092Z,-1.20
2019-03-20T00:35:17.621Z,-1.20
2019-03-20T00:37:46.238Z,-1.30
2019-03-20T00:40:18.498Z,-1.30
2019-03-20T00:42:47.184Z,-1.40
2019-03-20T00:45:20.714Z,-1.40
2019-03-20T00:47:49.603Z,-1.40
2019-03-20T00:50:19.272Z,-1.40
2019-03-20T00:52:47.904Z,-1.50
2019-03-20T00:55:17.472Z,-1.50
2019-03-20T00:57:46.282Z,-1.50
2019-03-20T01:00:17.279Z,-1.60
2019-03-20T01:02:45.892Z,-1.60
2019-03-20T01:05:15.454Z,-1.70
2019-03-20T01:07:44.606Z,-1.70
2019-03-20T01:10:18.485Z,-1.80
2019-03-20T01:12:47.290Z,-1.90
2019-03-20T01:15:16.235Z,-1.90
2019-03-20T01:17:45.327Z,-1.90
2019-03-20T01:20:17.067Z,-1.90
2019-03-20T01:22:45.981Z,-2.00
2019-03-20T01:25:15.572Z,-2.00
2019-03-20T01:27:44.178Z,-1.90
2019-03-20T01:30:37.799Z,-1.90
2019-03-20T01:33:13.947Z,-2.00
2019-03-20T01:35:42.834Z,-2.00
2019-03-20T01:38:11.598Z,-2.10
2019-03-20T01:40:40.861Z,-2.10
2019-03-20T01:43:09.685Z,-2.10
2019-03-20T01:45:38.274Z,-2.10
2019-03-20T01:48:06.987Z,-2.20
2019-03-20T01:50:35.640Z,-2.20
2019-03-20T01:53:04.427Z,-2.20
2019-03-20T01:55:32.955Z,-2.20
2019-03-20T01:58:01.572Z,-2.20
2019-03-20T02:00:30.239Z,-2.20
2019-03-20T02:02:58.858Z,-2.20
2019-03-20T02:05:35.834Z,-2.20
2019-03-20T02:07:57.575Z,-2.20
2019-03-20T02:10:26.097Z,-2.30
2019-03-20T02:12:54.650Z,-2.30
2019-03-20T02:15:23.167Z,-2.40
2019-03-20T02:17:51.783Z,-2.40
2019-03-20T02:20:21.261Z,-2.50
2019-03-20T02:22:49.796Z,-2.50
2019-03-20T02:25:18.319Z,-2.60
2019-03-20T02:27:46.912Z,-2.60
2019-03-20T02:30:19.227Z,-2.60
2019-03-20T02:32:47.827Z,-2.60
2019-03-20T02:35:16.495Z,-2.70
2019-03-20T02:37:45.150Z,-2.70
2019-03-20T02:40:16.930Z,-2.70
2019-03-20T02:42:45.456Z,-2.70
2019-03-20T02:45:15.347Z,-2.70
2019-03-20T02:47:43.937Z,-2.70
2019-03-20T02:50:13.714Z,-2.70
2019-03-20T02:52:42.312Z,-2.80
2019-03-20T02:55:11.691Z,-2.80
2019-03-20T02:57:40.494Z,-2.80
2019-03-20T03:00:22.148Z,-2.90
2019-03-20T03:02:50.750Z,-2.80
2019-03-20T03:05:19.604Z,-2.80
2019-03-20T03:07:48.124Z,-2.80
2019-03-20T03:10:18.123Z,-2.80
2019-03-20T03:12:46.914Z,-2.80
2019-03-20T03:15:16.708Z,-2.90
2019-03-20T03:17:45.608Z,-2.90
2019-03-20T03:20:17.220Z,-3.00
2019-03-20T03:22:45.836Z,-2.90
2019-03-20T03:25:15.018Z,-2.90
2019-03-20T03:27:43.651Z,-2.90
2019-03-20T03:30:17.505Z,-2.90
2019-03-20T03:32:46.333Z,-2.90
2019-03-20T03:35:17.861Z,-2.90
2019-03-20T03:37:45.545Z,-2.90
2019-03-20T03:40:18.997Z,-2.90
2019-03-20T03:42:47.571Z,-2.90
2019-03-20T03:45:16.866Z,-2.90
2019-03-20T03:47:46.039Z,-3.00
2019-03-20T03:50:14.923Z,-3.00
2019-03-20T03:52:43.556Z,-3.10
2019-03-20T03:55:13.447Z,-3.10
2019-03-20T03:57:42.292Z,-3.20
2019-03-20T04:00:15.948Z,-3.10
2019-03-20T04:02:44.545Z,-3.20
2019-03-20T04:05:13.744Z,-3.20
2019-03-20T04:07:42.268Z,-3.20
2019-03-20T04:10:13.875Z,-3.30
2019-03-20T04:12:42.424Z,-3.30
2019-03-20T04:15:15.781Z,-3.30
2019-03-20T04:17:44.451Z,-3.30
2019-03-20T04:20:17.807Z,-3.30
2019-03-20T04:22:46.378Z,-3.40
2019-03-20T04:25:15.039Z,-3.40
2019-03-20T04:27:43.537Z,-3.40
2019-03-20T04:30:16.996Z,-3.50
2019-03-20T04:32:45.613Z,-3.50
2019-03-20T04:35:14.388Z,-3.40
2019-03-20T04:37:42.980Z,-3.40
2019-03-20T04:40:13.835Z,-3.50
2019-03-20T04:42:42.366Z,-3.50
2019-03-20T04:45:15.805Z,-3.50
2019-03-20T04:47:44.348Z,-3.60
2019-03-20T04:50:14.210Z,-3.60
2019-03-20T04:52:42.801Z,-3.60
2019-03-20T04:55:11.590Z,-3.50
2019-03-20T04:57:40.200Z,-3.50
2019-03-20T05:00:22.732Z,-3.60
2019-03-20T05:02:51.264Z,-3.50
2019-03-20T05:05:19.855Z,-3.50
2019-03-20T05:07:48.322Z,-3.60
2019-03-20T05:10:18.014Z,-3.60
2019-03-20T05:12:46.563Z,-3.70
2019-03-20T05:15:15.227Z,-3.60
2019-03-20T05:17:43.875Z,-3.60
2019-03-20T05:20:15.088Z,-3.60
2019-03-20T05:22:43.610Z,-3.60
2019-03-20T05:25:12.278Z,-3.60
2019-03-20T05:27:40.890Z,-3.70
2019-03-20T05:30:12.383Z,-3.70
2019-03-20T05:32:40.978Z,-3.70
2019-03-20T05:35:09.658Z,-3.80
2019-03-20T05:37:38.191Z,-3.80
2019-03-20T05:40:12.109Z,-3.80
2019-03-20T05:42:40.699Z,-3.70
2019-03-20T05:45:11.876Z,-3.60
2019-03-20T05:47:40.415Z,-3.40
2019-03-20T05:50:13.877Z,-3.20
2019-03-20T05:52:42.467Z,-3.00
2019-03-20T05:55:11.155Z,-2.70
2019-03-20T05:57:39.682Z,-2.40
2019-03-20T06:00:11.478Z,-2.10
2019-03-20T06:02:39.951Z,-1.80
2019-03-20T06:05:08.624Z,-1.60
2019-03-20T06:07:37.164Z,-1.30
2019-03-20T06:10:11.390Z,-1.20
2019-03-20T06:12:39.928Z,-1.10
2019-03-20T06:15:09.020Z,-0.80
2019-03-20T06:17:37.537Z,-0.60
2019-03-20T06:20:08.782Z,-0.20
2019-03-20T06:22:37.326Z,0.00
2019-03-20T06:25:08.291Z,0.30
2019-03-20T06:27:36.817Z,0.70
2019-03-20T06:30:08.671Z,1.10
2019-03-20T06:32:37.204Z,1.30
2019-03-20T06:35:07.886Z,1.60
2019-03-20T06:37:36.410Z,1.80
2019-03-20T06:40:07.687Z,2.00
2019-03-20T06:42:36.218Z,2.10
2019-03-20T06:45:07.811Z,2.30
2019-03-20T06:47:36.326Z,2.70
2019-03-20T06:50:10.798Z,3.10
2019-03-20T06:52:39.324Z,3.40
2019-03-20T06:55:09.082Z,3.80
2019-03-20T06:57:37.619Z,4.20
2019-03-20T07:00:36.682Z,4.60
2019-03-20T07:03:29.326Z,4.90
2019-03-20T07:06:06.680Z,5.00
2019-03-20T07:08:38.310Z,5.10
2019-03-20T07:11:06.115Z,5.10
2019-03-20T07:13:34.638Z,5.30
2019-03-20T07:16:03.322Z,5.60
2019-03-20T07:18:31.849Z,6.10
2019-03-20T07:21:00.368Z,6.50
2019-03-20T07:23:28.906Z,6.80
2019-03-20T07:25:57.351Z,7.10
2019-03-20T07:28:25.799Z,7.20
2019-03-20T07:30:54.336Z,7.30
2019-03-20T07:33:22.924Z,7.30
2019-03-20T07:35:51.455Z,7.50
2019-03-20T07:38:20.006Z,7.70
2019-03-20T07:40:48.528Z,7.40
2019-03-20T07:43:17.052Z,7.60
2019-03-20T07:45:45.598Z,7.90
2019-03-20T07:48:21.952Z,8.40
2019-03-20T07:50:44.314Z,8.90
2019-03-20T07:53:12.874Z,9.10
2019-03-20T07:55:41.537Z,9.00
2019-03-20T07:58:10.066Z,8.90
2019-03-20T08:00:38.682Z,9.10
2019-03-20T08:03:07.215Z,9.00
2019-03-20T08:05:35.749Z,9.00
2019-03-20T08:08:07.585Z,9.10
2019-03-20T08:10:34.459Z,9.20
2019-03-20T08:13:02.995Z,8.80
2019-03-20T08:15:31.475Z,8.90
2019-03-20T08:17:59.991Z,8.70
2019-03-20T08:20:29.772Z,8.50
2019-03-20T08:22:58.374Z,8.40
2019-03-20T08:25:26.987Z,8.50
2019-03-20T08:27:55.451Z,8.60
2019-03-20T08:30:24.044Z,8.40
2019-03-20T08:32:52.595Z,8.50
2019-03-20T08:35:21.123Z,8.80
2019-03-20T08:37:49.647Z,9.10
2019-03-20T08:40:19.131Z,9.30
2019-03-20T08:42:47.715Z,9.50
2019-03-20T08:45:20.906Z,9.70
2019-03-20T08:47:49.483Z,9.70
2019-03-20T08:50:20.497Z,9.60
2019-03-20T08:52:49.421Z,9.50
2019-03-20T08:55:19.139Z,9.60
2019-03-20T08:57:47.736Z,9.70
2019-03-20T09:00:25.680Z,9.70
2019-03-20T09:02:54.259Z,9.60
2019-03-20T09:05:22.769Z,9.30
2019-03-20T09:07:51.393Z,9.50
2019-03-20T09:10:26.675Z,9.70
2019-03-20T09:12:55.270Z,9.90
2019-03-20T09:15:23.972Z,10.10
2019-03-20T09:17:52.534Z,10.10
2019-03-20T09:20:24.715Z,9.60
2019-03-20T09:22:53.377Z,9.30
2019-03-20T09:25:23.931Z,9.50
2019-03-20T09:27:52.462Z,9.70
2019-03-20T09:30:25.235Z,9.90
2019-03-20T09:32:53.818Z,9.80
2019-03-20T09:35:22.488Z,9.50
2019-03-20T09:37:52.549Z,9.50
2019-03-20T09:40:23.864Z,9.60
2019-03-20T09:42:52.670Z,9.90
2019-03-20T09:45:23.338Z,10.20
2019-03-20T09:47:51.934Z,10.60
2019-03-20T09:50:25.333Z,10.50
2019-03-20T09:52:53.943Z,10.20
2019-03-20T09:55:22.477Z,9.90
2019-03-20T09:57:51.014Z,9.70
2019-03-20T10:00:22.602Z,9.90
2019-03-20T10:02:51.140Z,10.10
2019-03-20T10:05:19.754Z,9.80
2019-03-20T10:07:48.426Z,9.70
2019-03-20T10:10:21.906Z,9.40
2019-03-20T10:12:50.465Z,9.10
2019-03-20T10:15:38.374Z,9.00
2019-03-20T10:18:07.006Z,9.00
2019-03-20T10:23:21.815Z,8.60
2019-03-20T10:25:50.384Z,8.40
2019-03-20T10:28:19.019Z,8.20
2019-03-20T10:30:47.650Z,8.00
2019-03-20T10:33:16.669Z,8.00
2019-03-20T10:35:50.218Z,8.00
2019-03-20T10:38:15.686Z,8.10
2019-03-20T10:40:44.523Z,8.20
2019-03-20T10:43:13.151Z,8.30
2019-03-20T10:45:41.793Z,8.40
2019-03-20T10:48:10.467Z,8.30
2019-03-20T10:50:39.062Z,8.10
2019-03-20T10:53:08.038Z,8.00
2019-03-20T10:55:36.778Z,8.10
2019-03-20T10:58:05.393Z,8.30
2019-03-20T11:00:33.989Z,8.70
2019-03-20T11:03:02.594Z,9.30
2019-03-20T11:05:31.276Z,9.30
2019-03-20T11:08:00.015Z,9.40
2019-03-20T11:10:29.259Z,9.50
2019-03-20T11:12:57.944Z,9.20
2019-03-20T11:15:29.754Z,8.90
2019-03-20T11:17:58.153Z,8.60
2019-03-20T11:20:26.985Z,8.60
2019-03-20T11:22:55.646Z,8.70
2019-03-20T11:25:26.454Z,8.80
2019-03-20T11:27:55.146Z,8.90
2019-03-20T11:30:30.930Z,8.90
2019-03-20T11:32:59.690Z,8.90
2019-03-20T11:35:28.363Z,9.10
2019-03-20T11:37:56.966Z,9.50
2019-03-20T11:40:36.282Z,10.10
2019-03-20T11:43:05.246Z,10.30
2019-03-20T11:45:33.922Z,10.80
2019-03-20T11:48:02.701Z,10.60
2019-03-20T11:50:38.901Z,10.70
2019-03-20T11:53:08.577Z,10.70
2019-03-20T11:55:37.707Z,10.80
2019-03-20T11:58:07.346Z,11.10
2019-03-20T12:00:36.315Z,11.20
2019-03-20T12:03:05.651Z,10.90
2019-03-20T12:05:34.345Z,10.70
2019-03-20T12:08:03.154Z,10.80
2019-03-20T12:10:32.813Z,10.70
2019-03-20T12:13:01.430Z,10.20
2019-03-20T12:15:30.108Z,10.00
2019-03-20T12:17:58.720Z,9.70
2019-03-20T12:20:27.746Z,9.70
2019-03-20T12:22:56.506Z,9.70
2019-03-20T12:25:28.179Z,9.70
2019-03-20T12:27:56.871Z,9.70
2019-03-20T12:30:30.660Z,9.50
2019-03-20T12:32:59.398Z,9.40
2019-03-20T12:35:30.458Z,9.00
2019-03-20T12:37:59.131Z,9.10
2019-03-20T12:40:29.956Z,9.60
2019-03-20T12:42:58.910Z,10.00
2019-03-20T12:45:30.586Z,10.30
2019-03-20T12:47:59.279Z,10.30
2019-03-20T12:50:27.966Z,10.30
2019-03-20T12:52:56.629Z,10.40
2019-03-20T12:55:25.402Z,10.70
2019-03-20T12:57:54.079Z,10.80
2019-03-20T13:00:27.554Z,10.90
2019-03-20T13:02:56.490Z,10.60
2019-03-20T13:05:25.230Z,10.70
2019-03-20T13:07:53.839Z,10.40
2019-03-20T13:10:23.707Z,10.40
2019-03-20T13:12:52.393Z,10.10
2019-03-20T13:15:25.022Z,10.10
2019-03-20T13:17:54.788Z,10.10
2019-03-20T13:20:23.454Z,10.30
2019-03-20T13:23:01.294Z,10.60
2019-03-20T13:25:29.901Z,10.70
2019-03-20T13:27:58.594Z,10.60
2019-03-20T13:30:39.610Z,10.50
2019-03-20T13:33:08.285Z,10.70
2019-03-20T13:35:36.890Z,10.90
2019-03-20T13:38:05.583Z,11.10
2019-03-20T13:40:34.241Z,11.40
2019-03-20T13:43:02.850Z,11.30
2019-03-20T13:45:32.014Z,11.10
2019-03-20T13:48:00.635Z,11.00
2019-03-20T13:50:29.253Z,10.80
2019-03-20T13:52:57.864Z,10.50
2019-03-20T13:55:26.495Z,10.60
2019-03-20T13:57:55.098Z,10.50
2019-03-20T14:00:27.621Z,10.60
2019-03-20T14:02:56.320Z,10.40
2019-03-20T14:05:25.067Z,10.30
2019-03-20T14:07:53.745Z,10.30
2019-03-20T14:10:25.349Z,10.40
2019-03-20T14:12:53.765Z,10.10
2019-03-20T14:15:22.911Z,9.70
2019-03-20T14:17:51.743Z,9.90
2019-03-20T14:20:25.798Z,10.00
2019-03-20T14:22:54.472Z,10.30
2019-03-20T14:25:23.947Z,10.30
2019-03-20T14:27:54.546Z,10.10
2019-03-20T14:30:33.296Z,10.20
2019-03-20T14:33:02.049Z,10.10
2019-03-20T14:35:30.659Z,10.10
2019-03-20T14:37:59.421Z,10.10
2019-03-20T14:40:36.797Z,10.00
2019-03-20T14:43:03.681Z,9.70
2019-03-20T14:45:32.351Z,9.50
2019-03-20T14:48:00.958Z,9.20
2019-03-20T14:50:36.502Z,9.20
2019-03-20T14:53:05.499Z,9.30
2019-03-20T14:55:34.189Z,9.40
2019-03-20T14:58:02.790Z,9.60
2019-03-20T15:00:32.061Z,9.80
2019-03-20T15:03:00.648Z,9.60
2019-03-20T15:05:29.318Z,9.70
2019-03-20T15:07:58.010Z,9.60
2019-03-20T15:10:27.767Z,9.50
2019-03-20T15:12:57.021Z,9.50
2019-03-20T15:15:28.883Z,9.50
2019-03-20T15:17:57.485Z,9.70
2019-03-20T15:20:26.361Z,9.70
2019-03-20T15:22:55.030Z,9.80
2019-03-20T15:25:23.763Z,9.80
2019-03-20T15:27:52.360Z,9.80
2019-03-20T15:30:23.366Z,9.70
2019-03-20T15:32:52.056Z,9.60
2019-03-20T15:35:20.656Z,9.70
2019-03-20T15:37:49.398Z,9.70
2019-03-20T15:40:26.155Z,9.60
2019-03-20T15:42:54.756Z,9.30
2019-03-20T15:45:23.447Z,9.20
2019-03-20T15:47:52.133Z,9.20
2019-03-20T15:50:22.071Z,9.20
2019-03-20T15:52:50.690Z,9.20
2019-03-20T15:55:35.713Z,9.20
2019-03-20T15:58:04.661Z,9.20
2019-03-20T16:00:33.333Z,9.20
2019-03-20T16:03:05.060Z,9.30
2019-03-20T16:05:33.666Z,9.20
2019-03-20T16:08:02.278Z,9.30
2019-03-20T16:10:30.878Z,9.30
2019-03-20T16:12:59.642Z,9.20
2019-03-20T16:15:28.309Z,9.20
2019-03-20T16:17:56.931Z,9.10
2019-03-20T16:20:25.540Z,9.00
2019-03-20T16:22:54.161Z,8.90
2019-03-20T16:25:24.109Z,8.70
2019-03-20T16:27:52.857Z,8.60
2019-03-20T16:30:32.239Z,8.50
2019-03-20T16:33:00.923Z,8.40
2019-03-20T16:35:29.924Z,8.30
2019-03-20T16:37:58.502Z,8.30
2019-03-20T16:40:35.134Z,8.30
2019-03-20T16:43:03.878Z,8.30
2019-03-20T16:45:33.421Z,8.10
2019-03-20T16:48:02.097Z,8.00
2019-03-20T16:50:30.844Z,7.80
2019-03-20T16:52:59.520Z,7.70
2019-03-20T16:55:28.201Z,7.70
2019-03-20T16:57:56.869Z,7.70
2019-03-20T17:00:28.514Z,7.60
2019-03-20T17:02:57.675Z,7.50
2019-03-20T17:05:27.352Z,7.40
2019-03-20T17:07:56.210Z,7.30
2019-03-20T17:10:33.228Z,7.30
2019-03-20T17:13:02.658Z,7.10
2019-03-20T17:15:33.830Z,7.10
2019-03-20T17:18:02.678Z,7.00
2019-03-20T17:20:33.065Z,6.80
2019-03-20T17:23:01.736Z,6.70
2019-03-20T17:25:30.426Z,6.50
2019-03-20T17:27:59.178Z,6.50
2019-03-20T17:30:30.393Z,6.30
2019-03-20T17:32:59.162Z,6.10
2019-03-20T17:35:27.840Z,6.00
2019-03-20T17:37:56.792Z,5.90
2019-03-20T17:40:27.246Z,5.90
2019-03-20T17:42:55.989Z,5.80
2019-03-20T17:45:29.134Z,5.70
2019-03-20T17:47:57.827Z,5.60
2019-03-20T17:50:28.171Z,5.50
2019-03-20T17:52:56.853Z,5.40
2019-03-20T17:55:25.598Z,5.30
2019-03-20T17:57:54.465Z,5.20
2019-03-20T18:00:41.728Z,5.20
2019-03-20T18:03:10.490Z,5.10
2019-03-20T18:05:39.226Z,5.00
2019-03-20T18:08:08.774Z,4.80
2019-03-20T18:10:37.452Z,4.70
2019-03-20T18:13:06.985Z,4.70
2019-03-20T18:15:36.050Z,4.60
2019-03-20T18:18:05.693Z,4.50
2019-03-20T18:20:34.481Z,4.50
2019-03-20T18:23:03.080Z,4.40
2019-03-20T18:25:31.680Z,4.30
2019-03-20T18:28:00.290Z,4.20
2019-03-20T18:30:31.655Z,4.10
2019-03-20T18:33:00.275Z,4.10
2019-03-20T18:35:28.851Z,3.90
2019-03-20T18:37:57.410Z,3.90
2019-03-20T18:40:27.210Z,3.80
2019-03-20T18:42:55.788Z,3.80
2019-03-20T18:45:27.528Z,3.80
2019-03-20T18:47:56.287Z,3.60
2019-03-20T18:50:25.826Z,3.60
2019-03-20T18:52:54.335Z,3.50
2019-03-20T18:55:22.946Z,3.40
2019-03-20T18:57:51.623Z,3.30
2019-03-20T19:00:27.769Z,3.40
2019-03-20T19:02:58.554Z,3.30
2019-03-20T19:05:32.974Z,3.20
2019-03-20T19:08:01.557Z,3.20
2019-03-20T19:10:30.245Z,3.10
2019-03-20T19:12:58.979Z,3.00
2019-03-20T19:15:27.663Z,2.90
2019-03-20T19:17:56.218Z,2.90
2019-03-20T19:20:24.735Z,2.80
2019-03-20T19:22:53.195Z,2.70
2019-03-20T19:25:21.875Z,2.60
2019-03-20T19:27:50.498Z,2.70
2019-03-20T19:30:24.555Z,2.70
2019-03-20T19:32:53.228Z,2.60
2019-03-20T19:35:21.826Z,2.60
2019-03-20T19:37:50.541Z,2.50
2019-03-20T19:40:20.312Z,2.40
2019-03-20T19:42:48.843Z,2.40
2019-03-20T19:45:18.968Z,2.40
2019-03-20T19:47:47.749Z,2.30
2019-03-20T19:50:17.803Z,2.10
2019-03-20T19:52:46.422Z,2.10
2019-03-20T19:55:16.201Z,2.10
2019-03-20T19:57:44.846Z,2.10
2019-03-20T20:00:25.042Z,2.10
2019-03-20T20:02:53.641Z,2.10
2019-03-20T20:05:22.308Z,2.00
2019-03-20T20:07:51.589Z,1.90
2019-03-20T20:10:21.040Z,1.80
2019-03-20T20:12:49.662Z,1.80
2019-03-20T20:15:25.138Z,1.80
2019-03-20T20:17:53.728Z,1.70
2019-03-20T20:20:38.964Z,1.70
2019-03-20T20:23:07.555Z,1.70
2019-03-20T20:25:36.155Z,1.60
2019-03-20T20:28:04.687Z,1.50
2019-03-20T20:30:33.130Z,1.50
2019-03-20T20:33:01.676Z,1.40
2019-03-20T20:35:30.199Z,1.40
2019-03-20T20:37:58.643Z,1.40
2019-03-20T20:40:30.840Z,1.30
2019-03-20T20:42:59.443Z,1.30
2019-03-20T20:45:27.967Z,1.20
2019-03-20T20:47:56.415Z,1.10
2019-03-20T20:50:25.027Z,1.00
2019-03-20T20:52:53.567Z,1.00
2019-03-20T20:55:25.504Z,1.00
2019-03-20T20:57:54.096Z,1.00
2019-03-20T21:00:26.524Z,1.00
2019-03-20T21:02:55.120Z,1.00
2019-03-20T21:05:23.804Z,0.90
2019-03-20T21:07:52.390Z,0.80
2019-03-20T21:10:21.976Z,0.70
2019-03-20T21:12:56.062Z,0.50
2019-03-20T21:15:35.972Z,0.40
2019-03-20T21:18:13.726Z,0.30
2019-03-20T21:20:42.343Z,0.10
2019-03-20T21:23:40.586Z,-0.10
2019-03-20T21:26:21.185Z,-0.10
2019-03-20T21:29:26.263Z,-0.20
2019-03-20T21:32:09.943Z,-0.10
2019-03-20T21:34:53.403Z,0.00
2019-03-20T21:37:27.730Z,0.10
2019-03-20T21:39:56.252Z,0.10
2019-03-20T21:42:33.920Z,0.20
2019-03-20T21:45:31.298Z,0.10
2019-03-20T21:47:59.775Z,0.10
2019-03-20T21:50:37.322Z,0.00
2019-03-20T21:53:05.862Z,-0.10
2019-03-20T21:56:10.883Z,-0.20
2019-03-20T21:58:42.525Z,-0.30
2019-03-20T22:01:31.506Z,-0.40
2019-03-20T22:03:59.977Z,-0.50
2019-03-20T22:06:53.546Z,-0.50
2019-03-20T22:09:25.236Z,-0.50
2019-03-20T22:12:13.383Z,-0.60
2019-03-20T22:14:44.265Z,-0.60
2019-03-20T22:17:27.909Z,-0.50
2019-03-20T22:20:05.490Z,-0.50
2019-03-20T22:22:57.737Z,-0.60
2019-03-20T22:25:38.325Z,-0.70
2019-03-20T22:28:09.938Z,-0.80
2019-03-20T22:30:38.495Z,-0.90
2019-03-20T22:33:43.867Z,-0.80
2019-03-20T22:36:12.339Z,-0.90
2019-03-20T22:38:58.507Z,-0.90
2019-03-20T22:42:02.017Z,-0.90
2019-03-20T22:44:30.614Z,-1.00
2019-03-20T22:47:35.456Z,-1.10
2019-03-20T22:50:25.059Z,-1.10
2019-03-20T22:53:16.307Z,-1.20
2019-03-20T22:56:09.067Z,-1.30
2019-03-20T22:58:45.833Z,-1.20
2019-03-20T23:01:20.296Z,-1.20
2019-03-20T23:03:54.838Z,-1.30
2019-03-20T23:06:23.293Z,-1.30
2019-03-20T23:08:51.824Z,-1.30
2019-03-20T23:11:20.298Z,-1.40
2019-03-20T23:13:48.828Z,-1.40
2019-03-20T23:16:20.007Z,-1.40
2019-03-20T23:18:48.469Z,-1.50
2019-03-20T23:21:17.007Z,-1.50
2019-03-20T23:23:45.530Z,-1.50
2019-03-20T23:26:14.003Z,-1.60
2019-03-20T23:28:42.531Z,-1.70
2019-03-20T23:31:11.138Z,-1.70
2019-03-20T23:33:39.695Z,-1.70
2019-03-20T23:36:08.217Z,-1.80
2019-03-20T23:38:36.765Z,-1.80
2019-03-20T23:41:05.708Z,-1.80
2019-03-20T23:43:34.479Z,-1.70
2019-03-20T23:46:03.851Z,-1.70
2019-03-20T23:48:38.101Z,-1.70
2019-03-20T23:51:09.655Z,-1.80
2019-03-20T23:53:39.567Z,-1.80
2019-03-20T23:56:08.099Z,-1.90
2019-03-20T23:58:36.638Z,-2.00
